Tous vos exploits sur  Logo Planète Marathon le site 100% Marathon

Spitsbergen Marathon (Norvège)              Donnez votre avis sur l'édition 2018

Le 02/06/2018 - Edition 2018 - 129 arrivants.                                                       

Clmt. Temps Nom Prénom Club Organisme Catégorie
1 2:52:27 Suchenia Piotr (POL) M30-39 (+)
2 3:00:12 Wennemars Erben (NED) M40-49 (+)
3 3:00:39 Evsyukov Dmitry (RUS) M30-39 (+)
4 3:03:57 Krakemo Mari (NOR) F20-29 (+)
5 3:08:26 Bach Jan (GER) M40-49 (+)
6 3:11:20 Hegelbach Patrik (SUI) M40-49 (+)
7 3:11:45 Benoit Yoann (FRA) M20-29 (+)
8 3:12:11 Chittka Joerg (GER) M50-59 (+)
9 3:14:05 Haaland Thomas (NOR) M20-29 (+)
10 3:20:05 Touffut Jean-philippe (FRA) M40-49 (+)
11 3:20:11 Millard Thomas (GBR) M40-49 (+)
12 3:21:20 Sacco Alessandro (ITA) M30-39 (+)
13 3:22:45 Lawende Bob (NED) M30-39 (+)
14 3:31:52 Markiewicz Mariusz (POL) M40-49 (+)
15 3:31:59 Terharmsel Patty (NED) F30-39 (+)
16 3:35:49 Ciani Nicola (ITA) M40-49 (+)
17 3:37:07 Skyrud Pal (NOR) Romerike Friidrett M40-49 (+)
18 3:37:50 Synowiec Stanislaw (POL) M40-49 (+)
19 3:37:51 Banas Mateusz (POL) M30-39 (+)
20 3:38:35 Martens Stijn (BEL) M30-39 (+)
21 3:41:33 Adamczyk Eric (FRA) M50-59 (+)
22 3:42:21 Ederveen Ronald (NED) M50-59 (+)
23 3:42:22 Aker Ferry (NED) M50-59 (+)
24 3:42:35 Kuepper Lukas (GER) M50-59 (+)
25 3:43:08 Derooij Raoul (NED) M30-39 (+)
26 3:43:16 Lorenzini Michela (ITA) F40-49 (+)
27 3:43:34 Larsen Kolbjorn (NOR) Orkanger If - Friidrett M40-49 (+)
28 3:44:37 Van Der Neut Andre (NED) M40-49 (+)
29 3:46:47 Jover Angel (ESP) M40-49 (+)
30 3:48:17 Weihs Julien-pooya (SJM) M20-29 (+)
31 3:48:32 Krecielewski Tomasz (POL) M30-39 (+)
32 3:48:57 Malin Elisabeth Heiervang (NOR) F20-29 (+)
33 3:49:16 Out Niels (NED) M30-39 (+)
34 3:49:20 Dekuiper Raymond (NED) M40-49 (+)
35 3:50:20 Marti Ursula (SUI) F50-59 (+)
36 3:52:53 Dejong Rinke (NED) F40-49 (+)
37 3:52:58 Vaags Walter (NED) M40-49 (+)
38 3:53:12 Dewijkerslooth Allard (NED) M40-49 (+)
39 3:53:33 Feldborg Mille (DEN) F30-39 (+)
40 3:53:44 Koch Penelope (USA) F20-29 (+)
41 3:53:59 Karl Georg Ohrn (NOR) M40-49 (+)
42 3:54:44 Turi Sean (USA) M30-39 (+)
43 3:55:00 Hillen Evelien (NED) F40-49 (+)
44 3:56:42 Fosshaug Hege (NOR) F30-39 (+)
45 3:56:56 Marcozzi Manrico (ITA) M40-49 (+)
45 3:56:56 Rak Szymon (POL) M30-39 (+)
47 3:57:18 Hubeck-graudal Asta (DEN) F30-39 (+)
48 3:57:46 Deslegte Jeroen (NED) M40-49 (+)
49 3:58:01 Aleshin Sergey (RUS) M30-39 (+)
50 3:58:56 Tolan Ismet (GER) M40-49 (+)
51 3:59:04 Vanleeuwen Stefan (NED) M50-59 (+)
52 3:59:05 Poloczek Jaroslaw (POL) M30-39 (+)
53 4:01:42 Mandrell Court (USA) M50-59 (+)
54 4:03:59 Immisch Torben (DEN) M40-49 (+)
55 4:04:51 Barassi Chiara (ITA) F20-29 (+)
56 4:06:10 Schonfeld Lauritz (GER) M20-29 (+)
57 4:06:12 Stanglewicz Anna (POL) F30-39 (+)
58 4:08:20 Michel Simona (GER) F50-59 (+)
59 4:08:47 Steen Arno (NED) M50-59 (+)
60 4:09:32 Wan Ying Chow (NED) F30-39 (+)
61 4:11:00 Haas Philipp (GER) M30-39 (+)
62 4:14:31 Kerkela Lasse (FIN) M40-49 (+)
63 4:15:20 Orlando Jack (USA) M50-59 (+)
64 4:16:12 Jan Niels Kluczniok (GER) M30-39 (+)
65 4:16:25 Nesvadba Michal (CZE) M30-39 (+)
66 4:16:58 Nalin Luca (ITA) M40-49 (+)
67 4:17:10 Szulzycka Marta (POL) F30-39 (+)
68 4:17:51 Turko Nikita (UKR) M20-29 (+)
69 4:19:22 Camilla Feragen Knap (NOR) F40-49 (+)
70 4:19:37 Muller Edwin (NED) M40-49 (+)
71 4:20:58 Clinton Hilary (NOR) F40-49 (+)
72 4:22:26 Hegland Rimante (LTU) F30-39 (+)
73 4:22:58 Hannu Erkki Komulainen (FIN) M60-69 (+)
74 4:24:18 Grduszak Klaus (GER) M60-69 (+)
75 4:24:48 Coccia Davide (ITA) M30-39 (+)
76 4:25:56 Onderdelinden Ellen (NED) F50-59 (+)
77 4:25:59 Muizer Jolanda (NED) F40-49 (+)
78 4:26:21 Flaga Piotr (POL) M40-49 (+)
79 4:26:29 Peters Tim (GER) M30-39 (+)
80 4:27:00 Saarinen Juhani (FIN) M40-49 (+)
81 4:27:04 Hauger Marianne (NOR) F50-59 (+)
82 4:28:20 Geerts Desiree (NED) F40-49 (+)
83 4:28:59 Franijeur Henrik (DEN) M50-59 (+)
84 4:29:22 Hauger Kjersti (NOR) F50-59 (+)
85 4:29:28 Klappe Ineke (NED) F40-49 (+)
86 4:29:33 Michalak Ania (POL) F40-49 (+)
87 4:30:15 Van Der Voort Miranda (NED) F50-59 (+)
88 4:30:24 Den Braanker Theo (NED) M50-59 (+)
89 4:30:46 Hertoghe Thierry (BEL) M60-69 (+)
90 4:31:01 Melis Toon (BEL) M20-29 (+)
91 4:31:23 Debeer Denise (NED) F40-49 (+)
92 4:33:47 Kahkonen Juha (FIN) M60-69 (+)
93 4:34:24 Verhage Wim (NED) M60-69 (+)
94 4:35:52 Basting Rian (NED) F40-49 (+)
95 4:38:48 Dousi Kim (NED) F20-29 (+)
96 4:39:18 Nagel Dennis (NED) M50-59 (+)
97 4:40:31 Knipping Hilde (NED) F30-39 (+)
98 4:41:36 Bredero Beeleke (NED) F20-29 (+)
99 4:41:55 Van Zaanen Patrice (NED) M40-49 (+)
100 4:42:49 Blei Atse (NED) M40-49 (+)
101 4:46:38 Vriend Jeroen (NED) M40-49 (+)
102 4:47:03 Heise Marlen (GER) F50-59 (+)
103 4:47:12 Liberna Zenon (POL) M50-59 (+)
104 4:47:54 Sin Jennifer (SIN) F40-49 (+)
105 4:47:58 Steinebach Paul (NED) M50-59 (+)
106 4:48:37 Jonasson Torleif (SWE) M50-59 (+)
107 4:49:00 Pleijt William (NED) M50-59 (+)
108 4:49:32 Vandijk Johan (NED) M50-59 (+)
109 4:52:26 Nowacka Marta (POL) F30-39 (+)
110 4:54:04 Lammers Henk (NED) M60-69 (+)
111 4:54:28 Machnik Wojciech (POL) M40-49 (+)
112 4:55:59 Raikas Tuula (FIN) F50-59 (+)
113 4:59:15 Ofelt Daniela (NOR) F30-39 (+)
113 4:59:15 Lassesen Even (NOR) M30-39 (+)
115 4:59:39 Banas Slawomir (POL) M50-59 (+)
116 5:00:12 Yanfeng Catherine Sun (HKG) F40-49 (+)
117 5:00:43 Ivar Petter Nilssen (NOR) Svorkmo N.o.i. M70+ (+)
118 5:02:38 Dysiewicz Maciej (POL) M50-59 (+)
119 5:05:25 Gee Sin Lim (SIN) M40-49 (+)
120 5:06:37 Turina-tumewu Maureen (NED) F30-39 (+)
121 5:09:11 Moers Peter (GER) M50-59 (+)
122 5:20:25 Sin Regina (SIN) F40-49 (+)
123 5:23:39 Willems Max (NED) F30-39 (+)
124 5:33:54 Kivits Peter (NED) M40-49 (+)
125 5:36:30 Bergh Amanda (NOR) F20-29 (+)
125 5:36:30 Lillehagen Petter (NOR) M20-29 (+)
127 5:41:10 Mierzejewski Alfred (POL) M40-49 (+)
128 5:42:09 Xin Michael (HKG) M20-29 (+)
129 5:43:40 Oon Jeffrey (SIN) M40-49 (+)